createdAt,value
2017-08-29T00:00:32.763Z,95.10
2017-08-29T00:03:00.283Z,95.10
2017-08-29T00:05:27.845Z,95.20
2017-08-29T00:07:55.369Z,95.10
2017-08-29T00:10:22.892Z,94.90
2017-08-29T00:12:50.431Z,94.80
2017-08-29T00:15:17.951Z,94.70
2017-08-29T00:17:45.499Z,94.80
2017-08-29T00:20:13.025Z,95.10
2017-08-29T00:22:40.566Z,95.00
2017-08-29T00:25:08.088Z,94.90
2017-08-29T00:27:35.638Z,94.80
2017-08-29T00:30:03.157Z,94.80
2017-08-29T00:32:30.699Z,95.10
2017-08-29T00:34:58.231Z,93.90
2017-08-29T00:37:25.776Z,94.20
2017-08-29T00:39:53.322Z,94.50
2017-08-29T00:42:20.882Z,94.60
2017-08-29T00:44:48.399Z,94.50
2017-08-29T00:47:15.923Z,95.00
2017-08-29T00:49:43.460Z,95.60
2017-08-29T00:52:10.986Z,95.20
2017-08-29T00:54:38.531Z,95.60
2017-08-29T00:57:06.050Z,95.70
2017-08-29T00:59:33.589Z,95.70
2017-08-29T01:02:01.106Z,95.70
2017-08-29T01:04:28.642Z,95.60
2017-08-29T01:06:56.159Z,95.30
2017-08-29T01:09:23.695Z,95.30
2017-08-29T01:11:51.210Z,95.60
2017-08-29T01:14:18.754Z,95.50
2017-08-29T01:16:46.278Z,95.40
2017-08-29T01:19:13.822Z,95.20
2017-08-29T01:21:42.210Z,95.20
2017-08-29T01:24:09.731Z,95.20
2017-08-29T01:26:37.272Z,95.10
2017-08-29T01:29:04.794Z,94.90
2017-08-29T01:31:32.329Z,95.10
2017-08-29T01:33:59.842Z,95.40
2017-08-29T01:36:27.383Z,95.20
2017-08-29T01:38:54.901Z,95.70
2017-08-29T01:41:22.442Z,95.90
2017-08-29T01:43:49.986Z,96.10
2017-08-29T01:46:17.531Z,96.20
2017-08-29T01:48:45.047Z,96.00
2017-08-29T01:51:12.592Z,96.30
2017-08-29T01:53:40.875Z,96.50
2017-08-29T01:56:08.415Z,96.50
2017-08-29T01:58:35.947Z,95.50
2017-08-29T02:01:03.486Z,95.40
2017-08-29T02:03:31.007Z,95.60
2017-08-29T02:05:58.531Z,95.50
2017-08-29T02:08:26.075Z,95.50
2017-08-29T02:10:53.591Z,96.60
2017-08-29T02:13:21.133Z,96.90
2017-08-29T02:15:48.664Z,97.10
2017-08-29T02:18:16.202Z,96.80
2017-08-29T02:20:43.724Z,96.60
2017-08-29T02:23:11.267Z,96.50
2017-08-29T02:25:38.782Z,96.50
2017-08-29T02:28:06.313Z,96.50
2017-08-29T02:30:33.835Z,96.80
2017-08-29T02:33:01.371Z,96.90
2017-08-29T02:35:28.895Z,96.90
2017-08-29T02:37:56.431Z,97.00
2017-08-29T02:40:23.952Z,96.90
2017-08-29T02:42:51.496Z,96.80
2017-08-29T02:45:19.015Z,96.40
2017-08-29T02:47:46.532Z,96.50
2017-08-29T02:50:14.075Z,96.60
2017-08-29T02:52:41.595Z,96.70
2017-08-29T02:55:09.903Z,96.80
2017-08-29T02:57:37.419Z,96.80
2017-08-29T03:00:04.960Z,96.80
2017-08-29T03:02:32.478Z,96.90
2017-08-29T03:05:00.019Z,97.00
2017-08-29T03:07:29.303Z,96.90
2017-08-29T03:09:56.838Z,97.10
2017-08-29T03:12:24.360Z,97.10
2017-08-29T03:14:51.894Z,97.00
2017-08-29T03:17:19.415Z,97.00
2017-08-29T03:19:46.960Z,96.80
2017-08-29T03:22:14.483Z,96.90
2017-08-29T03:24:41.998Z,96.80
2017-08-29T03:27:09.545Z,97.00
2017-08-29T03:29:37.079Z,97.10
2017-08-29T03:32:04.624Z,96.90
2017-08-29T03:34:32.147Z,96.90
2017-08-29T03:36:59.686Z,96.00
2017-08-29T03:39:27.203Z,96.40
2017-08-29T03:41:54.742Z,96.50
2017-08-29T03:44:22.266Z,95.40
2017-08-29T03:46:49.810Z,95.60
2017-08-29T03:49:17.332Z,96.30
2017-08-29T03:51:45.634Z,96.60
2017-08-29T03:54:13.151Z,96.60
2017-08-29T03:56:40.692Z,96.90
2017-08-29T03:59:08.207Z,97.30
2017-08-29T04:01:35.759Z,97.80
2017-08-29T04:04:03.279Z,97.70
2017-08-29T04:06:30.799Z,97.90
2017-08-29T04:08:58.338Z,97.70
2017-08-29T04:11:25.864Z,97.20
2017-08-29T04:13:53.404Z,96.70
2017-08-29T04:16:20.925Z,96.70
2017-08-29T04:18:48.464Z,96.60
2017-08-29T04:21:15.982Z,96.60
2017-08-29T04:23:43.523Z,97.00
2017-08-29T04:26:11.043Z,97.60
2017-08-29T04:28:38.583Z,97.80
2017-08-29T04:31:06.103Z,98.10
2017-08-29T04:33:33.629Z,98.20
2017-08-29T04:36:01.167Z,98.20
2017-08-29T04:38:28.687Z,97.90
2017-08-29T04:40:56.229Z,97.30
2017-08-29T04:43:23.746Z,96.30
2017-08-29T04:45:52.060Z,96.40
2017-08-29T04:48:19.579Z,96.20
2017-08-29T04:50:47.115Z,96.30
2017-08-29T04:53:14.639Z,96.70
2017-08-29T04:55:42.184Z,96.80
2017-08-29T04:58:09.720Z,97.30
2017-08-29T05:00:37.259Z,97.60
2017-08-29T05:03:04.774Z,97.40
2017-08-29T05:05:32.334Z,96.70
2017-08-29T05:07:59.875Z,94.70
2017-08-29T05:10:27.395Z,92.20
2017-08-29T05:12:54.948Z,90.70
2017-08-29T05:15:22.471Z,90.30
2017-08-29T05:17:50.025Z,89.10
2017-08-29T05:20:17.551Z,85.50
2017-08-29T05:22:45.095Z,82.70
2017-08-29T05:25:12.624Z,79.40
2017-08-29T05:27:40.162Z,76.50
2017-08-29T05:30:07.688Z,73.90
2017-08-29T05:32:35.234Z,74.40
2017-08-29T05:35:02.758Z,74.30
2017-08-29T05:37:30.311Z,73.30
2017-08-29T05:39:57.823Z,71.70
2017-08-29T05:42:25.343Z,70.40
2017-08-29T05:44:52.883Z,67.90
2017-08-29T05:47:20.411Z,66.60
2017-08-29T05:49:47.959Z,65.40
2017-08-29T05:52:15.475Z,64.10
2017-08-29T05:54:43.015Z,61.10
2017-08-29T05:57:10.541Z,59.70
2017-08-29T05:59:38.079Z,59.10
2017-08-29T06:02:05.604Z,58.30
2017-08-29T06:04:33.146Z,57.40
2017-08-29T06:07:00.663Z,56.80
2017-08-29T06:09:28.210Z,56.20
2017-08-29T06:11:55.727Z,56.40
2017-08-29T06:14:23.281Z,55.90
2017-08-29T06:16:50.800Z,56.30
2017-08-29T06:19:18.319Z,56.10
2017-08-29T06:21:45.863Z,56.70
2017-08-29T06:24:13.389Z,57.50
2017-08-29T06:26:40.935Z,57.40
2017-08-29T06:29:08.460Z,57.10
2017-08-29T06:31:36.020Z,55.20
2017-08-29T06:34:03.552Z,53.00
2017-08-29T06:36:31.100Z,52.70
2017-08-29T06:38:58.627Z,53.30
2017-08-29T06:41:26.162Z,54.40
2017-08-29T06:43:53.688Z,53.80
2017-08-29T06:46:21.226Z,56.80
2017-08-29T06:48:48.742Z,55.00
2017-08-29T06:51:16.330Z,54.50
2017-08-29T06:53:43.852Z,53.10
2017-08-29T06:56:11.403Z,54.30
2017-08-29T06:58:38.934Z,53.70
2017-08-29T07:01:06.463Z,53.50
2017-08-29T07:03:34.020Z,53.10
2017-08-29T07:06:01.546Z,49.90
2017-08-29T07:08:29.087Z,52.30
2017-08-29T07:10:56.603Z,53.00
2017-08-29T07:13:24.138Z,51.70
2017-08-29T07:15:51.659Z,51.60
2017-08-29T07:18:19.206Z,51.80
2017-08-29T07:20:47.495Z,51.10
2017-08-29T07:23:15.040Z,51.10
2017-08-29T07:25:42.558Z,52.40
2017-08-29T07:28:10.103Z,52.90
2017-08-29T07:30:37.620Z,52.80
2017-08-29T07:33:05.156Z,52.80
2017-08-29T07:35:32.675Z,52.00
2017-08-29T07:38:00.224Z,51.30
2017-08-29T07:40:27.738Z,51.00
2017-08-29T07:42:55.268Z,50.40
2017-08-29T07:45:22.802Z,52.10
2017-08-29T07:47:50.327Z,51.80
2017-08-29T07:50:17.872Z,48.50
2017-08-29T07:52:45.389Z,49.50
2017-08-29T07:55:12.936Z,49.30
2017-08-29T07:57:40.451Z,49.30
2017-08-29T08:00:08.000Z,45.90
2017-08-29T08:02:35.587Z,49.20
2017-08-29T08:05:03.133Z,51.40
2017-08-29T08:07:30.655Z,50.60
2017-08-29T08:09:58.203Z,50.30
2017-08-29T08:12:25.727Z,48.30
2017-08-29T08:14:53.250Z,46.70
2017-08-29T08:17:20.789Z,48.00
2017-08-29T08:19:48.316Z,45.70
2017-08-29T08:22:15.863Z,44.40
2017-08-29T08:24:43.389Z,45.60
2017-08-29T08:27:10.932Z,44.10
2017-08-29T08:29:38.454Z,45.80
2017-08-29T08:32:05.997Z,47.00
2017-08-29T08:34:33.525Z,46.30
2017-08-29T08:37:01.067Z,49.10
2017-08-29T08:39:28.588Z,48.70
2017-08-29T08:41:56.118Z,52.00
2017-08-29T08:44:23.636Z,49.40
2017-08-29T08:46:51.195Z,47.10
2017-08-29T08:49:18.717Z,48.10
2017-08-29T08:51:46.235Z,49.40
2017-08-29T08:54:13.785Z,47.80
2017-08-29T08:56:41.307Z,47.40
2017-08-29T08:59:08.851Z,44.20
2017-08-29T09:01:36.368Z,44.10
2017-08-29T09:04:03.908Z,43.80
2017-08-29T09:06:31.431Z,43.80
2017-08-29T09:08:58.974Z,44.30
2017-08-29T09:11:26.496Z,44.20
2017-08-29T09:13:54.035Z,47.10
2017-08-29T09:16:21.555Z,46.30
2017-08-29T09:18:49.099Z,45.80
2017-08-29T09:21:16.618Z,44.50
2017-08-29T09:23:44.154Z,40.70
2017-08-29T09:26:11.674Z,42.20
2017-08-29T09:28:39.222Z,43.50
2017-08-29T09:31:06.751Z,44.40
2017-08-29T09:33:34.275Z,42.80
2017-08-29T09:36:01.820Z,44.20
2017-08-29T09:38:29.347Z,41.10
2017-08-29T09:40:56.893Z,39.90
2017-08-29T09:43:24.419Z,43.40
2017-08-29T09:45:51.955Z,43.20
2017-08-29T09:48:19.483Z,40.00
2017-08-29T09:50:47.025Z,42.10
2017-08-29T09:53:14.555Z,40.90
2017-08-29T09:55:42.101Z,41.80
2017-08-29T09:58:09.619Z,42.00
2017-08-29T10:00:37.168Z,39.90
2017-08-29T10:03:04.696Z,40.20
2017-08-29T10:05:32.215Z,39.80
2017-08-29T10:07:59.750Z,40.00
2017-08-29T10:10:27.288Z,42.70
2017-08-29T10:12:54.835Z,43.30
2017-08-29T10:15:22.360Z,43.50
2017-08-29T10:17:49.904Z,42.10
2017-08-29T10:20:17.433Z,41.10
2017-08-29T10:22:44.992Z,41.40
2017-08-29T10:25:12.516Z,42.60
2017-08-29T10:27:40.058Z,41.60
2017-08-29T10:30:08.446Z,42.20
2017-08-29T10:32:35.991Z,42.10
2017-08-29T10:35:03.524Z,43.20
2017-08-29T10:37:31.070Z,41.30
2017-08-29T10:39:58.586Z,41.30
2017-08-29T10:42:26.116Z,41.70
2017-08-29T10:44:53.655Z,41.80
2017-08-29T10:47:21.175Z,42.00
2017-08-29T10:49:48.720Z,42.30
2017-08-29T10:52:16.244Z,42.80
2017-08-29T10:54:43.791Z,43.50
2017-08-29T10:57:11.310Z,44.40
2017-08-29T10:59:38.854Z,45.80
2017-08-29T11:02:06.370Z,43.30
2017-08-29T11:04:33.916Z,41.70
2017-08-29T11:07:01.436Z,41.30
2017-08-29T11:09:28.980Z,40.90
2017-08-29T11:11:56.503Z,40.80
2017-08-29T11:14:24.060Z,41.40
2017-08-29T11:16:51.590Z,41.50
2017-08-29T11:19:19.116Z,42.00
2017-08-29T11:21:46.663Z,42.30
2017-08-29T11:24:14.187Z,40.10
2017-08-29T11:26:41.728Z,42.00
2017-08-29T11:29:09.254Z,41.00
2017-08-29T11:31:36.798Z,40.80
2017-08-29T11:34:04.320Z,41.30
2017-08-29T11:36:31.868Z,44.00
2017-08-29T11:38:59.396Z,44.10
2017-08-29T11:41:26.929Z,42.30
2017-08-29T11:43:54.455Z,41.00
2017-08-29T11:46:22.020Z,41.30
2017-08-29T11:48:49.557Z,40.50
2017-08-29T11:51:17.083Z,41.80
2017-08-29T11:53:44.629Z,41.60
2017-08-29T11:56:12.146Z,39.90
2017-08-29T11:58:39.687Z,40.60
2017-08-29T12:01:07.212Z,41.90
2017-08-29T12:03:34.755Z,41.10
2017-08-29T12:06:02.274Z,40.80
2017-08-29T12:08:29.817Z,42.30
2017-08-29T12:10:57.339Z,40.80
2017-08-29T12:13:24.873Z,40.90
2017-08-29T12:15:52.398Z,39.10
2017-08-29T12:18:19.943Z,39.70
2017-08-29T12:20:48.228Z,39.00
2017-08-29T12:23:15.752Z,38.90
2017-08-29T12:25:43.287Z,38.00
2017-08-29T12:28:10.812Z,38.70
2017-08-29T12:30:38.352Z,40.60
2017-08-29T12:33:05.875Z,40.40
2017-08-29T12:35:33.416Z,40.20
2017-08-29T12:38:00.942Z,39.60
2017-08-29T12:40:28.487Z,39.70
2017-08-29T12:42:56.029Z,38.30
2017-08-29T12:45:23.559Z,40.40
2017-08-29T12:47:51.098Z,39.80
2017-08-29T12:50:18.615Z,40.00
2017-08-29T12:52:46.155Z,40.30
2017-08-29T12:55:13.687Z,40.20
2017-08-29T12:57:41.232Z,39.50
2017-08-29T13:00:08.760Z,39.10
2017-08-29T13:02:36.306Z,38.20
2017-08-29T13:05:03.828Z,39.40
2017-08-29T13:07:31.380Z,38.60
2017-08-29T13:09:58.900Z,39.90
2017-08-29T13:12:26.454Z,40.60
2017-08-29T13:14:53.982Z,39.70
2017-08-29T13:17:21.513Z,41.10
2017-08-29T13:19:49.051Z,41.70
2017-08-29T13:22:16.583Z,41.80
2017-08-29T13:24:44.123Z,41.20
2017-08-29T13:27:11.648Z,42.10
2017-08-29T13:29:39.194Z,39.90
2017-08-29T13:32:06.710Z,40.80
2017-08-29T13:34:34.255Z,40.40
2017-08-29T13:37:01.778Z,40.30
2017-08-29T13:39:29.327Z,41.50
2017-08-29T13:41:56.857Z,42.80
2017-08-29T13:44:24.389Z,42.90
2017-08-29T13:46:51.935Z,43.20
2017-08-29T13:49:19.463Z,41.40
2017-08-29T13:51:47.016Z,42.80
2017-08-29T13:54:14.534Z,42.70
2017-08-29T13:56:42.086Z,42.30
2017-08-29T13:59:09.610Z,42.90
2017-08-29T14:01:37.145Z,43.10
2017-08-29T14:04:04.663Z,42.70
2017-08-29T14:06:32.223Z,42.50
2017-08-29T14:08:59.747Z,43.70
2017-08-29T14:11:27.267Z,44.00
2017-08-29T14:13:54.813Z,44.60
2017-08-29T14:16:22.335Z,44.50
2017-08-29T14:18:49.879Z,43.30
2017-08-29T14:21:17.398Z,42.60
2017-08-29T14:23:44.943Z,42.60
2017-08-29T14:26:12.464Z,43.00
2017-08-29T14:28:39.998Z,42.00
2017-08-29T14:31:07.519Z,42.90
2017-08-29T14:33:35.059Z,43.50
2017-08-29T14:36:02.587Z,43.60
2017-08-29T14:38:30.147Z,42.20
2017-08-29T14:40:57.661Z,41.70
2017-08-29T14:43:25.183Z,43.50
2017-08-29T14:45:52.726Z,43.60
2017-08-29T14:48:32.110Z,44.70
2017-08-29T14:50:59.647Z,44.00
2017-08-29T14:53:27.162Z,44.30
2017-08-29T14:55:54.712Z,44.00
2017-08-29T14:58:22.235Z,44.20
2017-08-29T15:00:49.783Z,44.80
2017-08-29T15:03:17.308Z,43.90
2017-08-29T15:05:44.855Z,43.50
2017-08-29T15:08:12.386Z,44.40
2017-08-29T15:10:39.930Z,44.10
2017-08-29T15:13:07.456Z,42.70
2017-08-29T15:15:34.992Z,43.60
2017-08-29T15:18:02.518Z,42.20
2017-08-29T15:20:30.066Z,42.70
2017-08-29T15:22:57.634Z,42.70
2017-08-29T15:25:25.150Z,43.40
2017-08-29T15:27:52.692Z,42.30
2017-08-29T15:30:20.211Z,42.30
2017-08-29T15:32:47.754Z,42.10
2017-08-29T15:35:15.285Z,42.40
2017-08-29T15:37:42.823Z,42.10
2017-08-29T15:40:10.353Z,42.20
2017-08-29T15:42:37.900Z,41.70
2017-08-29T15:45:05.439Z,42.10
2017-08-29T15:47:32.980Z,44.20
2017-08-29T15:50:00.504Z,43.30
2017-08-29T15:52:28.058Z,43.20
2017-08-29T15:54:55.570Z,43.60
2017-08-29T15:57:23.091Z,42.80
2017-08-29T15:59:50.631Z,43.50
2017-08-29T16:02:18.155Z,44.00
2017-08-29T16:04:45.699Z,47.50
2017-08-29T16:07:13.227Z,47.60
2017-08-29T16:09:40.766Z,49.70
2017-08-29T16:12:08.284Z,49.60
2017-08-29T16:14:35.826Z,49.80
2017-08-29T16:17:03.361Z,49.40
2017-08-29T16:19:30.904Z,49.20
2017-08-29T16:21:58.430Z,47.80
2017-08-29T16:24:25.979Z,49.40
2017-08-29T16:26:53.502Z,53.40
2017-08-29T16:29:21.031Z,57.50
2017-08-29T16:31:48.589Z,57.70
2017-08-29T16:34:16.107Z,57.80
2017-08-29T16:36:43.647Z,57.90
2017-08-29T16:39:11.171Z,60.10
2017-08-29T16:41:38.720Z,63.30
2017-08-29T16:44:06.238Z,64.30
2017-08-29T16:46:33.787Z,66.00
2017-08-29T16:49:01.307Z,66.00
2017-08-29T16:51:28.855Z,66.70
2017-08-29T16:53:56.379Z,67.40
2017-08-29T16:56:23.941Z,66.70
2017-08-29T16:58:51.462Z,66.80
2017-08-29T17:01:18.976Z,66.90
2017-08-29T17:03:46.524Z,68.90
2017-08-29T17:06:14.051Z,71.70
2017-08-29T17:08:41.591Z,72.00
2017-08-29T17:11:09.116Z,71.80
2017-08-29T17:13:36.662Z,71.50
2017-08-29T17:16:04.187Z,75.30
2017-08-29T17:18:31.735Z,77.20
2017-08-29T17:20:59.257Z,76.20
2017-08-29T17:23:26.799Z,77.60
2017-08-29T17:25:54.324Z,78.00
2017-08-29T17:28:21.884Z,78.50
2017-08-29T17:30:49.403Z,79.20
2017-08-29T17:33:16.954Z,79.70
2017-08-29T17:35:44.480Z,80.40
2017-08-29T17:38:12.015Z,81.10
2017-08-29T17:40:39.569Z,82.00
2017-08-29T17:43:07.109Z,82.40
2017-08-29T17:45:34.650Z,83.20
2017-08-29T17:48:02.174Z,82.80
2017-08-29T17:50:29.719Z,84.40
2017-08-29T17:52:57.247Z,85.60
2017-08-29T17:55:24.794Z,84.90
2017-08-29T17:57:52.315Z,84.20
2017-08-29T18:00:19.858Z,83.70
2017-08-29T18:02:47.383Z,84.70
2017-08-29T18:05:14.922Z,85.60
2017-08-29T18:07:42.452Z,86.10
2017-08-29T18:10:10.004Z,85.90
2017-08-29T18:12:37.532Z,88.10
2017-08-29T18:15:05.055Z,88.80
2017-08-29T18:17:32.604Z,89.00
2017-08-29T18:20:00.132Z,89.70
2017-08-29T18:22:27.674Z,90.00
2017-08-29T18:24:55.286Z,89.50
2017-08-29T18:27:22.831Z,89.70
2017-08-29T18:29:50.355Z,89.20
2017-08-29T18:32:17.991Z,88.50
2017-08-29T18:34:45.506Z,88.60
2017-08-29T18:37:13.042Z,88.00
2017-08-29T18:39:40.557Z,87.70
2017-08-29T18:42:08.111Z,87.50
2017-08-29T18:44:35.640Z,89.00
2017-08-29T18:47:03.166Z,90.50
2017-08-29T18:49:30.717Z,90.90
2017-08-29T18:51:58.245Z,91.00
2017-08-29T18:54:25.790Z,90.70
2017-08-29T18:56:53.479Z,90.60
2017-08-29T18:59:21.064Z,90.60
2017-08-29T19:01:48.606Z,90.30
2017-08-29T19:04:16.147Z,90.80
2017-08-29T19:06:43.675Z,90.90
2017-08-29T19:09:11.232Z,90.90
2017-08-29T19:11:38.760Z,91.20
2017-08-29T19:14:06.293Z,91.60
2017-08-29T19:16:33.852Z,91.50
2017-08-29T19:19:01.379Z,90.90
2017-08-29T19:21:28.929Z,90.60
2017-08-29T19:23:56.456Z,90.60
2017-08-29T19:26:24.003Z,90.50
2017-08-29T19:28:51.530Z,90.90
2017-08-29T19:31:19.075Z,91.80
2017-08-29T19:33:46.615Z,91.60
2017-08-29T19:36:14.158Z,91.60
2017-08-29T19:38:41.689Z,91.90
2017-08-29T19:41:09.247Z,92.20
2017-08-29T19:43:36.781Z,92.20
2017-08-29T19:46:04.311Z,92.30
2017-08-29T19:48:31.865Z,92.00
2017-08-29T19:50:59.395Z,91.90
2017-08-29T19:53:26.939Z,92.00
2017-08-29T19:55:54.461Z,92.50
2017-08-29T19:58:22.005Z,92.20
2017-08-29T20:00:49.532Z,91.80
2017-08-29T20:03:17.078Z,90.80
2017-08-29T20:05:44.638Z,91.30
2017-08-29T20:08:12.184Z,91.80
2017-08-29T20:10:39.725Z,92.00
2017-08-29T20:13:07.275Z,92.40
2017-08-29T20:15:34.804Z,92.30
2017-08-29T20:18:02.329Z,92.30
2017-08-29T20:20:29.870Z,92.40
2017-08-29T20:22:57.391Z,92.50
2017-08-29T20:25:24.934Z,92.50
2017-08-29T20:27:52.464Z,92.40
2017-08-29T20:30:20.013Z,92.20
2017-08-29T20:32:47.535Z,92.10
2017-08-29T20:35:15.078Z,92.30
2017-08-29T20:37:42.612Z,92.80
2017-08-29T20:40:10.171Z,92.60
2017-08-29T20:42:37.701Z,92.50
2017-08-29T20:45:05.233Z,92.70
2017-08-29T20:47:33.798Z,92.60
2017-08-29T20:50:02.090Z,93.00
2017-08-29T20:52:29.635Z,92.80
2017-08-29T20:54:57.173Z,93.20
2017-08-29T20:57:24.724Z,93.20
2017-08-29T20:59:52.247Z,93.70
2017-08-29T21:02:19.790Z,93.70
2017-08-29T21:04:47.314Z,94.00
2017-08-29T21:07:14.843Z,93.80
2017-08-29T21:09:42.399Z,93.80
2017-08-29T21:12:09.925Z,93.70
2017-08-29T21:14:37.476Z,92.20
2017-08-29T21:17:05.007Z,92.40
2017-08-29T21:19:32.576Z,93.00
2017-08-29T21:22:00.094Z,93.50
2017-08-29T21:24:27.645Z,93.90
2017-08-29T21:26:55.167Z,94.20
2017-08-29T21:29:22.707Z,94.50
2017-08-29T21:31:50.239Z,94.50
2017-08-29T21:34:17.794Z,94.50
2017-08-29T21:36:45.323Z,94.50
2017-08-29T21:39:12.849Z,94.60
2017-08-29T21:41:40.400Z,94.70
2017-08-29T21:44:07.931Z,94.90
2017-08-29T21:46:35.477Z,95.00
2017-08-29T21:49:03.030Z,94.90
2017-08-29T21:51:30.574Z,95.00
2017-08-29T21:53:58.095Z,94.60
2017-08-29T21:56:25.639Z,94.60
2017-08-29T21:58:53.182Z,94.40
2017-08-29T22:01:20.747Z,94.50
2017-08-29T22:03:48.280Z,94.30
2017-08-29T22:06:15.834Z,94.10
2017-08-29T22:08:43.362Z,94.40
2017-08-29T22:11:10.890Z,94.70
2017-08-29T22:13:38.435Z,95.30
2017-08-29T22:16:05.959Z,95.20
2017-08-29T22:18:33.502Z,94.90
2017-08-29T22:21:01.023Z,94.90
2017-08-29T22:23:28.563Z,94.10
2017-08-29T22:25:56.082Z,94.20
2017-08-29T22:28:23.623Z,94.60
2017-08-29T22:30:51.145Z,95.20
2017-08-29T22:33:19.455Z,95.60
2017-08-29T22:35:46.983Z,95.60
2017-08-29T22:38:14.526Z,95.90
2017-08-29T22:40:42.050Z,95.80
2017-08-29T22:43:09.596Z,96.00
2017-08-29T22:45:37.129Z,95.90
2017-08-29T22:48:04.684Z,96.10
2017-08-29T22:50:32.211Z,95.90
2017-08-29T22:52:59.747Z,95.70
2017-08-29T22:55:27.292Z,95.60
2017-08-29T22:57:54.820Z,95.50
2017-08-29T23:00:22.362Z,95.20
2017-08-29T23:02:49.894Z,95.40
2017-08-29T23:05:17.434Z,95.80
2017-08-29T23:07:44.967Z,96.20
2017-08-29T23:10:12.506Z,96.30
2017-08-29T23:12:40.031Z,96.90
2017-08-29T23:15:07.582Z,96.80
2017-08-29T23:17:35.103Z,96.90
2017-08-29T23:20:02.661Z,96.70
2017-08-29T23:22:30.186Z,96.50
2017-08-29T23:24:57.702Z,96.40
2017-08-29T23:27:25.250Z,96.20
2017-08-29T23:29:52.770Z,96.10
2017-08-29T23:32:20.309Z,95.10
2017-08-29T23:34:47.836Z,95.10
2017-08-29T23:37:15.392Z,95.40
2017-08-29T23:39:42.919Z,96.30
2017-08-29T23:42:10.466Z,96.40
2017-08-29T23:44:37.995Z,96.70
2017-08-29T23:47:05.539Z,97.10
2017-08-29T23:49:33.070Z,97.30
2017-08-29T23:52:00.615Z,97.40
2017-08-29T23:54:28.140Z,97.30
2017-08-29T23:56:55.661Z,97.10
2017-08-29T23:59:23.210Z,96.70
